Time;durP1;ratioP1;P1;durP2;ratioP2;P2;SDS_P1;SDS_P2;PMS_P1;PMS_P2;Temp;Humidity;BMP_temperature;BMP_pressure;BME280_temperature;BME280_humidity;BME280_pressure;Samples;Min_cycle;Max_cycle;Signal;HPM_P1;HPM_P2
2023/08/07 00:02:12;;;;;;;5.37;3.00;;;;;8.60;93903.00;;;;7393829;19;20240;-75
2023/08/07 00:04:40;;;;;;;7.50;2.67;;;;;8.70;93886.00;;;;7396116;19;20568;-75
2023/08/07 00:07:16;;;;;;;4.77;2.80;;;;;8.60;93902.00;;;;7396475;19;20604;-77
2023/08/07 00:09:51;;;;;;;4.03;3.00;;;;;8.70;93921.00;;;;7396322;19;20655;-75
2023/08/07 00:12:26;;;;;;;10.10;3.00;;;;;8.80;93921.00;;;;7393577;19;20155;-77
2023/08/07 00:14:54;;;;;;;3.87;2.80;;;;;8.70;93914.00;;;;7397079;19;20596;-77
2023/08/07 00:17:27;;;;;;;3.40;2.50;;;;;8.70;93906.00;;;;7392139;19;20137;-74
2023/08/07 00:19:55;;;;;;;5.93;2.67;;;;;8.70;93922.00;;;;7395247;19;20450;-76
2023/08/07 00:22:23;;;;;;;5.27;3.07;;;;;8.70;93908.00;;;;7393360;19;20133;-75
2023/08/07 00:25:04;;;;;;;6.53;2.77;;;;;8.70;93914.00;;;;7385978;19;20608;-77
2023/08/07 00:27:45;;;;;;;6.27;3.20;;;;;8.70;93927.00;;;;7392674;19;20152;-76
2023/08/07 00:30:19;;;;;;;5.33;2.80;;;;;8.70;93921.00;;;;7394273;19;20221;-76
2023/08/07 00:32:47;;;;;;;5.57;3.00;;;;;8.70;93907.00;;;;7392837;19;20518;-78
2023/08/07 00:35:21;;;;;;;5.97;3.13;;;;;8.80;93924.00;;;;7394312;19;20603;-76
2023/08/07 00:37:49;;;;;;;7.03;3.57;;;;;8.90;93922.00;;;;7394573;19;20158;-80
2023/08/07 00:40:23;;;;;;;5.47;2.73;;;;;8.90;93923.00;;;;7394968;19;20149;-77
2023/08/07 00:42:51;;;;;;;4.23;2.40;;;;;8.80;93925.00;;;;7395184;19;20125;-81
2023/08/07 00:45:25;;;;;;;5.37;2.47;;;;;9.00;93924.00;;;;7394401;19;20160;-81
2023/08/07 00:47:53;;;;;;;6.13;2.33;;;;;8.90;93928.00;;;;7400771;19;20129;-81
2023/08/07 00:50:21;;;;;;;4.00;2.60;;;;;9.00;93932.00;;;;7403369;19;20131;-80
2023/08/07 00:53:14;;;;;;;7.63;2.97;;;;;9.00;93940.00;;;;7399133;19;20159;-79
2023/08/07 00:55:48;;;;;;;5.47;2.67;;;;;8.80;93934.00;;;;7401794;19;20167;-76
2023/08/07 00:58:16;;;;;;;5.27;2.77;;;;;8.90;93944.00;;;;7399714;19;20145;-78
2023/08/07 01:00:51;;;;;;;6.27;2.87;;;;;9.00;93937.00;;;;7399154;19;20176;-80
2023/08/07 01:03:18;;;;;;;8.27;2.93;;;;;8.90;93937.00;;;;7400266;19;20148;-79
2023/08/07 01:05:52;;;;;;;7.77;2.80;;;;;8.80;93946.00;;;;7400345;19;20160;-79
2023/08/07 01:08:20;;;;;;;9.83;2.70;;;;;8.90;93941.00;;;;7399586;19;20137;-77
2023/08/07 01:11:20;;;;;;;4.73;2.60;;;;;8.90;93950.00;;;;7399968;19;20132;-78
2023/08/07 01:14:02;;;;;;;3.17;2.40;;;;;8.90;93947.00;;;;7399628;19;20152;-81
2023/08/07 01:17:03;;;;;;;4.97;2.17;;;;;8.90;93955.00;;;;7398591;19;20139;-78
2023/08/07 01:19:33;;;;;;;5.23;2.43;;;;;8.80;93941.00;;;;7399044;19;20149;-77
2023/08/07 01:22:15;;;;;;;6.77;2.57;;;;;8.80;93945.00;;;;7399620;19;20141;-79
2023/08/07 01:24:49;;;;;;;4.60;2.00;;;;;8.80;93945.00;;;;7397709;19;20173;-79
2023/08/07 01:27:37;;;;;;;5.87;2.60;;;;;8.60;93950.00;;;;7397681;19;20628;-75
2023/08/07 01:30:29;;;;;;;7.83;2.37;;;;;8.60;93946.00;;;;7397048;19;20156;-78
2023/08/07 01:33:06;;;;;;;7.03;2.43;;;;;8.70;93946.00;;;;7395980;19;20145;-77
2023/08/07 01:35:53;;;;;;;5.60;2.97;;;;;8.60;93942.00;;;;7400868;19;20131;-79
2023/08/07 01:38:28;;;;;;;2.43;2.03;;;;;8.70;93951.00;;;;7398207;19;20495;-77
2023/08/07 01:41:03;;;;;;;6.63;2.43;;;;;8.70;93951.00;;;;7399431;19;20132;-78
2023/08/07 01:43:37;;;;;;;4.83;2.00;;;;;8.70;93955.00;;;;7397817;19;20171;-75
2023/08/07 01:46:12;;;;;;;6.43;2.43;;;;;8.70;93951.00;;;;7395202;19;20133;-79
2023/08/07 01:48:40;;;;;;;11.60;2.90;;;;;8.70;93948.00;;;;7397462;19;20464;-78
2023/08/07 01:51:14;;;;;;;6.67;3.07;;;;;8.70;93949.00;;;;7396556;19;20165;-78
2023/08/07 01:53:42;;;;;;;9.17;2.60;;;;;8.70;93966.00;;;;7396890;19;20145;-78
2023/08/07 01:56:17;;;;;;;6.10;2.57;;;;;8.60;93967.00;;;;7397777;19;20144;-77
2023/08/07 01:58:51;;;;;;;7.17;2.23;;;;;8.60;93969.00;;;;7398192;19;20477;-77
2023/08/07 02:01:25;;;;;;;8.87;2.57;;;;;8.60;93958.00;;;;7397219;19;20171;-76
2023/08/07 02:04:01;;;;;;;5.80;2.73;;;;;8.50;93964.00;;;;7399983;19;20192;-86
2023/08/07 02:06:28;;;;;;;8.03;2.50;;;;;8.50;93955.00;;;;7398639;19;20156;-76
2023/08/07 02:09:02;;;;;;;6.20;2.70;;;;;8.50;93974.00;;;;7398987;19;20152;-81
2023/08/07 02:11:36;;;;;;;5.10;3.10;;;;;8.60;93945.00;;;;7398320;19;20603;-76
2023/08/07 02:14:10;;;;;;;6.00;2.37;;;;;8.50;93968.00;;;;7399403;19;20497;-73
2023/08/07 02:16:45;;;;;;;5.77;2.47;;;;;8.40;93969.00;;;;7398015;19;20193;-73
2023/08/07 02:19:20;;;;;;;5.40;2.60;;;;;8.50;93973.00;;;;7398456;19;20596;-74
2023/08/07 02:21:54;;;;;;;9.73;3.07;;;;;8.50;93961.00;;;;7395440;19;20147;-77
2023/08/07 02:24:35;;;;;;;4.50;2.80;;;;;8.50;93954.00;;;;7395027;19;20179;-76
2023/08/07 02:27:16;;;;;;;8.57;2.50;;;;;8.50;93973.00;;;;7398084;19;20148;-76
2023/08/07 02:29:44;;;;;;;2.80;2.27;;;;;8.70;93965.00;;;;7395595;19;20141;-75
2023/08/07 02:32:18;;;;;;;4.03;2.30;;;;;8.60;93967.00;;;;7398557;19;20156;-76
2023/08/07 02:34:53;;;;;;;5.73;2.43;;;;;8.60;93965.00;;;;7397355;19;20152;-75
2023/08/07 02:37:20;;;;;;;6.60;2.37;;;;;8.50;93976.00;;;;7396854;19;20129;-75
2023/08/07 02:39:54;;;;;;;6.23;2.40;;;;;8.40;93968.00;;;;7397292;19;20622;-77
2023/08/07 02:42:23;;;;;;;5.37;2.27;;;;;8.50;93971.00;;;;7396291;19;20132;-77
2023/08/07 02:44:57;;;;;;;5.00;2.30;;;;;8.50;93975.00;;;;7397559;19;20488;-76
2023/08/07 02:47:25;;;;;;;6.40;2.30;;;;;8.60;93966.00;;;;7397350;19;20144;-75
2023/08/07 02:49:53;;;;;;;6.70;2.17;;;;;8.40;93971.00;;;;7395672;19;20169;-74
2023/08/07 02:52:26;;;;;;;7.60;2.47;;;;;8.50;93962.00;;;;7394095;19;20153;-76
2023/08/07 02:54:54;;;;;;;5.03;2.23;;;;;8.60;93975.00;;;;7396547;19;20124;-76
2023/08/07 02:57:29;;;;;;;7.23;2.33;;;;;8.60;93985.00;;;;7395716;19;20154;-75
2023/08/07 02:59:56;;;;;;;7.17;2.70;;;;;8.50;93978.00;;;;7395862;19;20156;-75
2023/08/07 03:02:30;;;;;;;6.30;2.37;;;;;8.50;93959.00;;;;7395911;19;20149;-77
2023/08/07 03:04:58;;;;;;;4.93;2.53;;;;;8.60;93976.00;;;;7393457;19;20147;-74
2023/08/07 03:07:32;;;;;;;5.27;2.40;;;;;8.60;93976.00;;;;7395174;19;20497;-74
2023/08/07 03:10:07;;;;;;;4.33;2.33;;;;;8.70;93969.00;;;;7394414;19;20174;-76
2023/08/07 03:12:41;;;;;;;10.37;2.73;;;;;8.60;93972.00;;;;7393431;19;20607;-76
2023/08/07 03:15:15;;;;;;;10.53;2.93;;;;;8.70;93974.00;;;;7397483;19;20717;-75
2023/08/07 03:17:49;;;;;;;8.13;2.80;;;;;8.70;93964.00;;;;7397346;19;20521;-75
2023/08/07 03:20:17;;;;;;;9.63;3.33;;;;;8.70;93969.00;;;;7394862;19;20125;-75
2023/08/07 03:22:51;;;;;;;6.57;2.50;;;;;8.80;93984.00;;;;7392242;19;20128;-76
2023/08/07 03:25:33;;;;;;;5.43;2.53;;;;;8.80;93977.00;;;;7391446;19;20192;-76
2023/08/07 03:28:07;;;;;;;8.53;2.60;;;;;8.80;93993.00;;;;7394993;19;20136;-76
2023/08/07 03:30:42;;;;;;;7.03;2.43;;;;;8.80;93973.00;;;;7396428;19;20139;-74
2023/08/07 03:33:10;;;;;;;8.70;2.63;;;;;8.90;94002.00;;;;7391861;19;20587;-76
2023/08/07 03:35:45;;;;;;;4.93;2.13;;;;;8.90;93979.00;;;;7395312;19;20598;-74
2023/08/07 03:38:13;;;;;;;3.00;2.20;;;;;8.70;93975.00;;;;7394440;19;20213;-76
2023/08/07 03:40:46;;;;;;;6.23;2.33;;;;;8.70;93988.00;;;;7395496;19;20144;-76
2023/08/07 03:43:20;;;;;;;8.30;2.87;;;;;8.70;93977.00;;;;7395203;19;20125;-75
2023/08/07 03:45:56;;;;;;;7.90;2.40;;;;;8.60;93978.00;;;;7392798;19;20149;-76
2023/08/07 03:48:31;;;;;;;12.53;2.90;;;;;8.60;93976.00;;;;7395229;19;20140;-75
2023/08/07 03:51:10;;;;;;;7.83;2.53;;;;;8.50;93974.00;;;;7394774;19;20148;-74
2023/08/07 03:53:38;;;;;;;3.40;2.30;;;;;8.70;93970.00;;;;7392171;19;20144;-74
2023/08/07 03:56:13;;;;;;;6.63;2.90;;;;;8.60;93982.00;;;;7397448;19;20571;-76
2023/08/07 03:58:41;;;;;;;5.43;2.23;;;;;8.50;93976.00;;;;7394887;19;20141;-73
2023/08/07 04:01:15;;;;;;;5.57;2.40;;;;;8.50;93971.00;;;;7374363;19;20194;-76
2023/08/07 04:03:50;;;;;;;3.83;2.27;;;;;8.50;93986.00;;;;7376900;19;20274;-75
2023/08/07 04:06:17;;;;;;;7.03;2.20;;;;;8.50;93994.00;;;;7383165;19;20151;-75
2023/08/07 04:08:52;;;;;;;8.83;2.37;;;;;8.60;93990.00;;;;7381189;19;20157;-75
2023/08/07 04:11:19;;;;;;;8.00;2.30;;;;;8.60;93986.00;;;;7380590;19;20145;-75
2023/08/07 04:13:53;;;;;;;10.33;2.40;;;;;8.70;93972.00;;;;7380726;19;20128;-74
2023/08/07 04:16:27;;;;;;;8.00;2.27;;;;;8.70;93987.00;;;;7382103;19;20135;-75
2023/08/07 04:18:55;;;;;;;4.20;2.53;;;;;8.60;93983.00;;;;7380064;19;20155;-75
2023/08/07 04:21:30;;;;;;;6.77;2.23;;;;;8.80;93986.00;;;;7378918;19;20144;-76
2023/08/07 04:24:00;;;;;;;5.87;2.40;;;;;8.70;93991.00;;;;7382780;19;20128;-76
2023/08/07 04:26:40;;;;;;;4.63;2.50;;;;;8.80;93980.00;;;;7388295;19;20510;-77
2023/08/07 04:29:15;;;;;;;8.30;2.77;;;;;8.80;93991.00;;;;7389188;19;20164;-76
2023/08/07 04:31:48;;;;;;;5.37;2.47;;;;;8.70;93967.00;;;;7389836;19;20595;-75
2023/08/07 04:34:22;;;;;;;7.93;2.63;;;;;8.70;93985.00;;;;7386529;19;21514;-80
2023/08/07 04:36:53;;;;;;;4.70;2.47;;;;;8.80;93986.00;;;;7388583;19;20148;-75
2023/08/07 04:39:27;;;;;;;3.27;2.23;;;;;8.80;93989.00;;;;7389891;19;20591;-77
2023/08/07 04:42:01;;;;;;;7.67;2.60;;;;;8.80;93992.00;;;;7389131;19;20129;-77
2023/08/07 04:44:35;;;;;;;4.90;2.43;;;;;8.70;93996.00;;;;7388038;19;20624;-80
2023/08/07 04:47:03;;;;;;;10.07;2.27;;;;;8.90;94000.00;;;;7389453;19;20146;-76
2023/08/07 04:49:37;;;;;;;5.83;2.37;;;;;8.90;93989.00;;;;7389128;19;20604;-78
2023/08/07 04:52:11;;;;;;;5.27;2.40;;;;;8.90;94001.00;;;;7385784;19;20219;-77
2023/08/07 04:54:53;;;;;;;5.23;2.60;;;;;9.00;94001.00;;;;7389088;19;20580;-76
2023/08/07 04:57:20;;;;;;;5.57;2.27;;;;;8.90;94003.00;;;;7389517;19;20603;-75
2023/08/07 04:59:54;;;;;;;4.17;2.23;;;;;9.10;94006.00;;;;7389318;19;20585;-76
2023/08/07 05:02:29;;;;;;;3.50;2.10;;;;;9.20;94005.00;;;;7386116;19;20604;-78
2023/08/07 05:04:56;;;;;;;5.20;2.30;;;;;9.20;94005.00;;;;7389654;19;20144;-77
2023/08/07 05:07:24;;;;;;;2.63;2.03;;;;;9.30;93989.00;;;;7388809;19;21577;-78
2023/08/07 05:09:59;;;;;;;5.97;2.10;;;;;9.30;94009.00;;;;7386612;19;20157;-79
2023/08/07 05:12:33;;;;;;;5.27;2.27;;;;;9.30;93998.00;;;;7387563;19;20129;-76
2023/08/07 05:15:08;;;;;;;6.00;2.23;;;;;9.50;93995.00;;;;7387540;19;20125;-79
2023/08/07 05:17:36;;;;;;;4.93;2.10;;;;;9.20;93995.00;;;;7388518;19;20151;-80
2023/08/07 05:20:11;;;;;;;4.23;2.10;;;;;9.40;93992.00;;;;7388691;19;20165;-77
2023/08/07 05:22:46;;;;;;;5.40;2.03;;;;;9.30;94000.00;;;;7388583;19;20643;-79
2023/08/07 05:25:27;;;;;;;3.57;2.20;;;;;9.30;93997.00;;;;7389199;19;20180;-83
2023/08/07 05:28:08;;;;;;;5.30;2.10;;;;;9.20;94008.00;;;;7389244;19;20219;-80
2023/08/07 05:30:42;;;;;;;4.73;2.33;;;;;9.30;94014.00;;;;7388823;19;20500;-77
2023/08/07 05:33:17;;;;;;;7.10;2.33;;;;;9.20;94009.00;;;;7386967;19;20178;-77
2023/08/07 05:35:52;;;;;;;5.77;2.40;;;;;9.20;94021.00;;;;7387918;19;20150;-78
2023/08/07 05:38:26;;;;;;;3.70;2.30;;;;;9.30;94025.00;;;;7386859;19;21025;-77
2023/08/07 05:41:00;;;;;;;3.87;2.10;;;;;9.50;94025.00;;;;7387673;19;20149;-80
2023/08/07 05:43:34;;;;;;;7.77;2.50;;;;;9.30;94030.00;;;;7387492;19;20160;-79
2023/08/07 05:46:08;;;;;;;3.17;1.87;;;;;9.40;94018.00;;;;7385465;19;20216;-78
2023/08/07 05:48:43;;;;;;;4.07;1.93;;;;;9.40;94019.00;;;;7386770;19;21871;-76
2023/08/07 05:51:16;;;;;;;5.10;1.80;;;;;9.60;94025.00;;;;7387380;19;20595;-80
2023/08/07 05:53:50;;;;;;;4.13;1.90;;;;;10.10;94018.00;;;;7384700;19;20187;-78
2023/08/07 05:56:24;;;;;;;5.37;1.90;;;;;10.20;94027.00;;;;7386972;19;20129;-75
2023/08/07 05:58:52;;;;;;;5.97;1.80;;;;;10.20;94024.00;;;;7387627;19;20163;-77
2023/08/07 06:01:30;;;;;;;6.45;2.55;;;;;10.20;94026.00;;;;7384962;19;20206;-77
2023/08/07 06:03:58;;;;;;;4.70;1.90;;;;;10.10;94032.00;;;;7385515;19;20140;-80
2023/08/07 06:06:35;;;;;;;2.80;1.87;;;;;10.10;94018.00;;;;7386416;19;20120;-78
2023/08/07 06:09:09;;;;;;;3.37;2.30;;;;;10.30;94024.00;;;;7385987;19;20163;-77
2023/08/07 06:11:42;;;;;;;7.28;2.08;;;;;10.30;94048.00;;;;7383943;19;20447;-78
2023/08/07 06:14:10;;;;;;;6.28;2.28;;;;;10.30;94042.00;;;;7384280;19;20498;-76
2023/08/07 06:16:44;;;;;;;5.93;2.05;;;;;10.40;94047.00;;;;7385528;19;20132;-76
2023/08/07 06:19:22;;;;;;;3.85;1.98;;;;;10.40;94044.00;;;;7386106;19;20634;-77
2023/08/07 06:21:59;;;;;;;4.88;2.30;;;;;10.70;94047.00;;;;7383807;19;20152;-75
2023/08/07 06:24:40;;;;;;;6.05;1.98;;;;;10.70;94036.00;;;;7382647;19;20172;-80
2023/08/07 06:27:17;;;;;;;6.55;1.95;;;;;10.60;94046.00;;;;7385211;19;20144;-80
2023/08/07 06:29:45;;;;;;;7.25;2.25;;;;;10.60;94050.00;;;;7379662;19;20142;-80
2023/08/07 06:32:19;;;;;;;9.20;1.90;;;;;10.50;94041.00;;;;7383592;19;20152;-80
2023/08/07 06:34:54;;;;;;;3.92;1.80;;;;;10.60;94042.00;;;;7386549;19;20129;-78
2023/08/07 06:37:27;;;;;;;4.82;1.90;;;;;10.60;94045.00;;;;7385043;19;20205;-79
2023/08/07 06:40:02;;;;;;;3.65;1.75;;;;;11.00;94046.00;;;;7382146;19;20166;-77
2023/08/07 06:42:43;;;;;;;4.95;1.88;;;;;11.50;94053.00;;;;7384754;19;20152;-78
2023/08/07 06:45:27;;;;;;;3.88;1.83;;;;;11.40;94053.00;;;;7382518;19;20216;-76
2023/08/07 06:48:08;;;;;;;3.80;1.65;;;;;11.40;94053.00;;;;7384509;19;20136;-79
2023/08/07 06:50:42;;;;;;;3.60;1.70;;;;;11.70;94074.00;;;;7383616;19;20142;-80
2023/08/07 06:53:18;;;;;;;2.33;1.85;;;;;11.50;94063.00;;;;7384795;19;20140;-78
2023/08/07 06:55:46;;;;;;;5.13;1.70;;;;;11.60;94078.00;;;;7385678;19;20149;-74
2023/08/07 06:58:24;;;;;;;4.18;1.95;;;;;11.80;94081.00;;;;7384992;19;20670;-74
2023/08/07 07:00:51;;;;;;;3.20;1.60;;;;;12.00;94072.00;;;;7385091;19;20543;-75
2023/08/07 07:03:25;;;;;;;3.30;1.90;;;;;11.90;94080.00;;;;7385648;19;20155;-76
2023/08/07 07:06:00;;;;;;;5.38;1.80;;;;;12.00;94089.00;;;;7384307;19;20174;-78
2023/08/07 07:08:28;;;;;;;3.45;1.67;;;;;11.80;94065.00;;;;7383610;19;20599;-73
2023/08/07 07:11:01;;;;;;;9.95;1.90;;;;;12.00;94065.00;;;;7383968;19;20485;-75
2023/08/07 07:13:36;;;;;;;3.05;1.80;;;;;11.80;94087.00;;;;7378842;19;20148;-78
2023/08/07 07:16:12;;;;;;;2.97;2.00;;;;;12.00;94062.00;;;;7381036;19;21971;-77
2023/08/07 07:18:40;;;;;;;4.00;1.63;;;;;12.00;94070.00;;;;7377620;19;20133;-77
2023/08/07 07:21:15;;;;;;;2.17;1.60;;;;;12.50;94072.00;;;;7386470;19;20141;-75
2023/08/07 07:23:50;;;;;;;2.20;1.77;;;;;12.00;94082.00;;;;7377704;19;20263;-80
2023/08/07 07:26:24;;;;;;;2.13;1.60;;;;;11.80;94106.00;;;;7382602;19;20180;-74
2023/08/07 07:29:00;;;;;;;2.60;1.55;;;;;11.70;94091.00;;;;7383244;19;20187;-75
2023/08/07 07:31:29;;;;;;;2.38;1.60;;;;;11.90;94112.00;;;;7382419;19;20136;-76
2023/08/07 07:34:03;;;;;;;3.13;1.70;;;;;12.00;94096.00;;;;7383791;19;20134;-78
2023/08/07 07:36:38;;;;;;;6.60;1.60;;;;;12.40;94109.00;;;;7384730;19;20148;-76
2023/08/07 07:39:13;;;;;;;3.42;1.80;;;;;12.70;94102.00;;;;7382775;19;20788;-78
2023/08/07 07:41:49;;;;;;;2.28;1.65;;;;;12.90;94078.00;;;;7384058;19;20839;-76
2023/08/07 07:44:18;;;;;;;1.65;1.42;;;;;12.30;94096.00;;;;7382858;19;20140;-76
2023/08/07 07:46:52;;;;;;;3.53;1.63;;;;;12.60;94123.00;;;;7381319;19;20150;-74
2023/08/07 07:49:20;;;;;;;4.30;1.50;;;;;12.80;94098.00;;;;7384406;19;20117;-74
2023/08/07 07:51:53;;;;;;;1.60;1.42;;;;;12.60;94105.00;;;;7384699;19;20156;-75
2023/08/07 07:54:21;;;;;;;2.58;1.75;;;;;13.00;94079.00;;;;7383179;19;20746;-75
2023/08/07 07:56:56;;;;;;;2.70;1.55;;;;;13.20;94098.00;;;;7389188;19;20616;-76
2023/08/07 07:59:24;;;;;;;2.92;1.52;;;;;13.10;94113.00;;;;7390470;19;20124;-75
2023/08/07 08:01:59;;;;;;;2.08;1.13;;;;;12.80;94110.00;;;;7386469;19;20164;-76
2023/08/07 08:04:27;;;;;;;2.33;1.30;;;;;13.30;94122.00;;;;7388695;19;20212;-79
2023/08/07 08:07:03;;;;;;;2.38;1.60;;;;;12.70;94116.00;;;;7392026;19;20620;-78
2023/08/07 08:09:31;;;;;;;1.35;1.23;;;;;12.20;94110.00;;;;7392971;19;20135;-76
2023/08/07 08:12:06;;;;;;;3.72;1.30;;;;;12.90;94106.00;;;;7388606;19;20457;-76
2023/08/07 08:14:41;;;;;;;2.22;1.40;;;;;13.50;94120.00;;;;7391701;19;20146;-79
2023/08/07 08:17:23;;;;;;;3.72;1.40;;;;;13.10;94101.00;;;;7388587;19;20148;-79
2023/08/07 08:20:00;;;;;;;4.22;1.40;;;;;13.60;94121.00;;;;7383388;19;20173;-76
2023/08/07 08:22:35;;;;;;;2.90;1.55;;;;;13.10;94134.00;;;;7389120;19;20599;-77
2023/08/07 08:25:04;;;;;;;4.40;1.50;;;;;13.30;94120.00;;;;7388029;19;20232;-76
2023/08/07 08:27:46;;;;;;;1.67;1.33;;;;;13.30;94124.00;;;;7390195;19;20544;-75
2023/08/07 08:30:21;;;;;;;1.38;1.27;;;;;13.30;94123.00;;;;7391079;19;20149;-76
2023/08/07 08:32:56;;;;;;;1.75;1.20;;;;;13.90;94126.00;;;;7391154;19;20224;-77
2023/08/07 08:35:33;;;;;;;1.85;1.10;;;;;13.60;94101.00;;;;7390076;19;20156;-77
2023/08/07 08:38:08;;;;;;;2.83;1.58;;;;;13.30;94100.00;;;;7390812;19;20461;-75
2023/08/07 08:40:46;;;;;;;5.20;1.50;;;;;14.30;94124.00;;;;7390294;19;20136;-76
2023/08/07 08:43:21;;;;;;;1.15;1.00;;;;;13.60;94100.00;;;;7391525;19;20124;-75
2023/08/07 08:45:50;;;;;;;3.20;1.17;;;;;13.80;94114.00;;;;7388548;19;20140;-75
2023/08/07 08:48:24;;;;;;;1.85;1.30;;;;;13.20;94137.00;;;;7382696;19;20147;-76
2023/08/07 08:50:53;;;;;;;4.70;1.30;;;;;13.90;94137.00;;;;7388003;19;20132;-81
2023/08/07 08:53:28;;;;;;;1.65;1.40;;;;;13.90;94107.00;;;;7386255;19;20163;-77
2023/08/07 08:55:55;;;;;;;3.75;1.10;;;;;14.30;94169.00;;;;7386402;19;20155;-76
2023/08/07 08:58:30;;;;;;;4.90;1.40;;;;;13.40;94137.00;;;;7388844;19;20127;-78
2023/08/07 09:00:59;;;;;;;2.35;1.30;;;;;13.90;94149.00;;;;7387754;19;20172;-79
2023/08/07 09:03:33;;;;;;;1.20;1.10;;;;;13.90;94144.00;;;;7384864;19;20120;-77
2023/08/07 09:06:02;;;;;;;4.53;1.27;;;;;13.90;94143.00;;;;7387738;19;20596;-79
2023/08/07 09:08:42;;;;;;;2.63;1.38;;;;;13.60;94138.00;;;;7384023;19;20140;-76
2023/08/07 09:11:17;;;;;;;2.05;1.00;;;;;13.30;94133.00;;;;7381291;19;20152;-75
2023/08/07 09:13:54;;;;;;;2.17;1.30;;;;;13.50;94137.00;;;;7380425;19;20176;-75
2023/08/07 09:16:26;;;;;;;2.08;1.25;;;;;13.60;94157.00;;;;7382477;19;20151;-76
2023/08/07 09:19:01;;;;;;;1.38;1.13;;;;;13.20;94158.00;;;;7388881;19;20798;-78
2023/08/07 09:21:32;;;;;;;3.03;1.38;;;;;13.60;94144.00;;;;7386652;19;20140;-78
2023/08/07 09:24:08;;;;;;;2.30;1.60;;;;;13.10;94124.00;;;;7385117;19;20132;-77
2023/08/07 09:26:43;;;;;;;1.88;1.38;;;;;14.20;94144.00;;;;7384070;19;20184;-76
2023/08/07 09:29:21;;;;;;;4.93;1.70;;;;;14.30;94135.00;;;;7384568;19;20140;-78
2023/08/07 09:32:05;;;;;;;1.98;1.42;;;;;14.90;94155.00;;;;7386519;19;20474;-76
2023/08/07 09:34:41;;;;;;;4.88;1.50;;;;;14.90;94128.00;;;;7389379;19;20623;-75
2023/08/07 09:37:09;;;;;;;1.95;1.30;;;;;15.50;94172.00;;;;7385717;19;20700;-77
2023/08/07 09:39:43;;;;;;;2.50;1.60;;;;;14.80;94148.00;;;;7387890;19;20179;-76
2023/08/07 09:42:16;;;;;;;2.47;1.38;;;;;15.00;94158.00;;;;7387057;19;20167;-77
2023/08/07 09:44:50;;;;;;;2.72;1.30;;;;;15.10;94193.00;;;;7388133;19;20125;-79
2023/08/07 09:47:19;;;;;;;2.13;1.70;;;;;14.60;94191.00;;;;7386936;19;20520;-78
2023/08/07 09:49:55;;;;;;;1.98;1.38;;;;;14.30;94196.00;;;;7386726;19;20168;-77
2023/08/07 09:52:26;;;;;;;1.60;1.30;;;;;14.20;94191.00;;;;7387562;19;20149;-76
2023/08/07 09:55:00;;;;;;;3.20;1.65;;;;;14.50;94192.00;;;;7384388;19;20145;-76
2023/08/07 09:57:29;;;;;;;2.35;1.45;;;;;14.40;94187.00;;;;7385532;19;20145;-74
2023/08/07 10:00:11;;;;;;;2.95;1.33;;;;;14.80;94183.00;;;;7385101;19;20149;-74
2023/08/07 10:02:39;;;;;;;2.15;1.30;;;;;14.40;94181.00;;;;7385886;19;20164;-77
2023/08/07 10:05:14;;;;;;;1.95;1.45;;;;;15.40;94142.00;;;;7384213;19;20124;-76
2023/08/07 10:07:42;;;;;;;4.43;1.58;;;;;16.10;94166.00;;;;7384817;19;20154;-77
2023/08/07 10:10:21;;;;;;;2.85;1.40;;;;;15.70;94189.00;;;;7383848;19;20492;-74
2023/08/07 10:12:50;;;;;;;5.13;1.90;;;;;14.80;94183.00;;;;7385757;19;20142;-76
2023/08/07 10:15:24;;;;;;;3.78;1.50;;;;;14.70;94171.00;;;;7380860;19;20132;-75
2023/08/07 10:17:58;;;;;;;1.52;1.42;;;;;14.40;94178.00;;;;7386730;19;20192;-77
2023/08/07 10:20:29;;;;;;;3.15;1.75;;;;;14.00;94191.00;;;;7386965;19;20125;-77
2023/08/07 10:23:08;;;;;;;2.30;1.30;;;;;14.10;94203.00;;;;7385528;19;20714;-75
2023/08/07 10:25:51;;;;;;;1.98;1.30;;;;;14.30;94214.00;;;;7382025;19;20607;-71
2023/08/07 10:28:37;;;;;;;2.35;1.50;;;;;14.10;94211.00;;;;7385489;19;20125;-77
2023/08/07 10:31:13;;;;;;;1.50;1.30;;;;;14.30;94209.00;;;;7384047;19;20145;-74
2023/08/07 10:33:42;;;;;;;1.83;1.40;;;;;14.30;94214.00;;;;7387321;19;20240;-76
2023/08/07 10:36:18;;;;;;;1.63;1.50;;;;;14.50;94207.00;;;;7386343;19;20167;-74
2023/08/07 10:38:48;;;;;;;2.20;1.30;;;;;15.10;94186.00;;;;7388371;19;20132;-71
2023/08/07 10:41:22;;;;;;;2.13;1.58;;;;;14.50;94224.00;;;;7385292;19;20480;-76
2023/08/07 10:43:57;;;;;;;4.63;1.52;;;;;14.50;94227.00;;;;7385551;19;20149;-76
2023/08/07 10:46:52;;;;;;;1.50;1.40;;;;;14.30;94219.00;;;;7387063;19;20133;-77
2023/08/07 10:49:42;;;;;;;2.75;1.80;;;;;14.70;94204.00;;;;7388605;19;20144;-73
2023/08/07 10:52:14;;;;;;;2.17;1.60;;;;;14.60;94206.00;;;;7383730;19;20516;-74
2023/08/07 10:54:50;;;;;;;3.03;1.63;;;;;15.50;94182.00;;;;7385477;19;20212;-74
2023/08/07 10:57:32;;;;;;;2.20;1.70;;;;;15.90;94196.00;;;;7385595;19;20136;-80
2023/08/07 11:00:09;;;;;;;3.05;2.05;;;;;15.90;94176.00;;;;7384241;19;20133;-75
2023/08/07 11:02:47;;;;;;;2.55;1.55;;;;;16.60;94178.00;;;;7386468;19;20182;-71
2023/08/07 11:05:25;;;;;;;5.35;1.65;;;;;16.80;94193.00;;;;7384109;19;20137;-70
2023/08/07 11:07:59;;;;;;;1.77;1.40;;;;;16.50;94189.00;;;;7383165;19;20611;-72
2023/08/07 11:10:27;;;;;;;2.60;1.67;;;;;16.10;94192.00;;;;7381758;19;20612;-75
2023/08/07 11:13:01;;;;;;;2.17;1.48;;;;;16.90;94207.00;;;;7383331;19;20584;-71
2023/08/07 11:15:29;;;;;;;1.92;1.42;;;;;16.10;94222.00;;;;7382361;19;20168;-73
2023/08/07 11:18:04;;;;;;;3.03;1.40;;;;;15.90;94233.00;;;;7383091;19;20129;-72
2023/08/07 11:20:32;;;;;;;2.22;1.50;;;;;14.60;94235.00;;;;7382656;19;20228;-78
2023/08/07 11:23:06;;;;;;;5.95;1.80;;;;;14.20;94242.00;;;;7382776;19;20148;-75
2023/08/07 11:25:33;;;;;;;2.15;1.67;;;;;14.20;94237.00;;;;7383904;19;20183;-76
2023/08/07 11:28:15;;;;;;;1.77;1.23;;;;;14.80;94220.00;;;;7385468;19;20128;-74
2023/08/07 11:30:43;;;;;;;2.15;1.48;;;;;15.20;94223.00;;;;7377958;19;20575;-75
2023/08/07 11:33:24;;;;;;;2.90;1.50;;;;;14.30;94239.00;;;;7379304;19;20624;-75
2023/08/07 11:35:53;;;;;;;4.22;1.48;;;;;13.80;94238.00;;;;7382714;19;20152;-76
2023/08/07 11:38:32;;;;;;;2.55;1.67;;;;;13.30;94243.00;;;;7386975;19;20199;-75
2023/08/07 11:41:02;;;;;;;2.85;1.48;;;;;13.00;94244.00;;;;7382616;19;20140;-73
2023/08/07 11:43:38;;;;;;;2.65;1.42;;;;;12.90;94250.00;;;;7382758;19;20137;-75
2023/08/07 11:46:10;;;;;;;1.75;1.38;;;;;13.00;94262.00;;;;7385007;19;20168;-75
2023/08/07 11:48:45;;;;;;;1.92;1.65;;;;;12.90;94248.00;;;;7383560;19;20148;-75
2023/08/07 11:51:13;;;;;;;5.10;1.60;;;;;13.30;94242.00;;;;7384054;19;20148;-79
2023/08/07 11:53:47;;;;;;;2.80;1.50;;;;;13.80;94222.00;;;;7385690;19;20671;-74
2023/08/07 11:56:15;;;;;;;2.40;1.48;;;;;15.20;94201.00;;;;7384127;19;20608;-75
2023/08/07 11:58:51;;;;;;;2.10;1.30;;;;;16.50;94205.00;;;;7383890;19;20129;-75
2023/08/07 12:01:21;;;;;;;2.30;1.60;;;;;17.10;94208.00;;;;7384372;19;20180;-75
2023/08/07 12:03:56;;;;;;;2.00;1.50;;;;;16.20;94226.00;;;;7380868;19;20165;-75
2023/08/07 12:06:31;;;;;;;2.85;1.38;;;;;15.80;94218.00;;;;7384187;19;20136;-74
2023/08/07 12:09:14;;;;;;;2.10;1.45;;;;;15.70;94227.00;;;;7381235;19;20574;-75
2023/08/07 12:11:42;;;;;;;3.88;1.42;;;;;15.40;94226.00;;;;7382294;19;20140;-76
2023/08/07 12:14:17;;;;;;;2.30;1.58;;;;;14.90;94236.00;;;;7382059;19;20473;-75
2023/08/07 12:16:45;;;;;;;3.72;1.52;;;;;14.80;94234.00;;;;7383983;19;20150;-75
2023/08/07 12:19:19;;;;;;;5.15;1.45;;;;;15.10;94233.00;;;;7383837;19;20654;-76
2023/08/07 12:21:48;;;;;;;2.72;1.55;;;;;15.40;94241.00;;;;7384826;19;20692;-76
2023/08/07 12:24:23;;;;;;;1.50;1.40;;;;;15.10;94249.00;;;;7379785;19;22957;-74
2023/08/07 12:27:05;;;;;;;3.45;1.50;;;;;15.00;94241.00;;;;7383225;19;20153;-76
2023/08/07 12:29:40;;;;;;;2.33;1.60;;;;;14.90;94224.00;;;;7386844;19;20140;-75
2023/08/07 12:32:09;;;;;;;6.05;1.60;;;;;15.70;94225.00;;;;7382941;19;20152;-74
2023/08/07 12:34:44;;;;;;;3.75;1.40;;;;;16.20;94222.00;;;;7382538;19;20144;-75
2023/08/07 12:37:14;;;;;;;1.60;1.40;;;;;16.10;94223.00;;;;7384090;19;20160;-75
2023/08/07 12:39:49;;;;;;;2.95;1.50;;;;;15.70;94227.00;;;;7385777;19;20141;-75
2023/08/07 12:42:19;;;;;;;3.95;2.00;;;;;15.30;94245.00;;;;7385207;19;20149;-75
2023/08/07 12:44:58;;;;;;;2.72;1.50;;;;;15.50;94231.00;;;;7388074;19;20155;-77
2023/08/07 12:47:32;;;;;;;4.13;1.40;;;;;16.60;94211.00;;;;7390345;19;20136;-77
2023/08/07 12:50:06;;;;;;;2.97;1.63;;;;;16.50;94230.00;;;;7391560;19;20151;-76
2023/08/07 12:52:42;;;;;;;4.13;1.67;;;;;16.10;94246.00;;;;7390889;19;20148;-80
2023/08/07 12:55:17;;;;;;;2.45;1.63;;;;;15.90;94252.00;;;;7390413;19;21378;-76